EJU5ET LOWI-EDDN
Flight info
| Callsign | EJU5ET |
|---|---|
| Flight time | 0h 38m |
| Altitude | 29000 |
| Route | MOGTI P66 NESES T103 BETOS/N0450F280 M726 UPALA UPALA1V |
| Aircraft | A320/M-SDE3FGHIRWY/LB1 |
Departure
| Time | 2026-05-04 18:48 |
|---|---|
| Airport | Innsbruck Airport (LOWI) |
Arrival
| Time | 2026-05-04 19:27 |
|---|---|
| Airport | Nuremberg Airport (EDDN) |
| Time | Latitude | Longitude | Altitude | Speed | Heading |
|---|---|---|---|---|---|
| 2026-05-04 18:17 | 47.25840 | 11.35228 | 1912 ft | 0 kts | 171° |
| 2026-05-04 18:19 | 47.25841 | 11.35228 | 1912 ft | 0 kts | 171° |
| 2026-05-04 18:38 | 47.25860 | 11.35223 | 1908 ft | 4 kts | 162° |
| 2026-05-04 18:38 | 47.25883 | 11.35207 | 1901 ft | 4 kts | 133° |
| 2026-05-04 18:39 | 47.25892 | 11.35179 | 1899 ft | 5 kts | 81° |
| 2026-05-04 18:39 | 47.25892 | 11.35178 | 1899 ft | 0 kts | 81° |
| 2026-05-04 18:42 | 47.25895 | 11.35200 | 1903 ft | 7 kts | 81° |
| 2026-05-04 18:42 | 47.25918 | 11.35284 | 1904 ft | 11 kts | 32° |
| 2026-05-04 18:42 | 47.25972 | 11.35280 | 1906 ft | 0 kts | 351° |
| 2026-05-04 18:45 | 47.25973 | 11.35280 | 1907 ft | 2 kts | 351° |
| 2026-05-04 18:45 | 47.26053 | 11.35260 | 1915 ft | 21 kts | 350° |
| 2026-05-04 18:46 | 47.26131 | 11.35415 | 1910 ft | 17 kts | 81° |
| 2026-05-04 18:46 | 47.26135 | 11.35591 | 1903 ft | 15 kts | 115° |
| 2026-05-04 18:46 | 47.26121 | 11.35660 | 1909 ft | 1 kts | 24° |
| 2026-05-04 18:46 | 47.26132 | 11.35655 | 1903 ft | 5 kts | 346° |
| 2026-05-04 18:47 | 47.26153 | 11.35602 | 1913 ft | 6 kts | 261° |
| 2026-05-04 18:47 | 47.26152 | 11.35601 | 1913 ft | 0 kts | 261° |
| 2026-05-04 18:47 | 47.26144 | 11.35523 | 1910 ft | 38 kts | 261° |
| 2026-05-04 18:48 | 47.26054 | 11.34696 | 1915 ft | 123 kts | 261° |
| 2026-05-04 18:48 | 47.25875 | 11.33122 | 2037 ft | 178 kts | 256° |
| 2026-05-04 18:48 | 47.25692 | 11.31371 | 3004 ft | 172 kts | 259° |
| 2026-05-04 18:48 | 47.25504 | 11.29602 | 3623 ft | 182 kts | 259° |
| 2026-05-04 18:49 | 47.25304 | 11.27638 | 3828 ft | 208 kts | 264° |
| 2026-05-04 18:49 | 47.25580 | 11.25423 | 4137 ft | 232 kts | 293° |
| 2026-05-04 18:49 | 47.26270 | 11.23259 | 4851 ft | 237 kts | 294° |
| 2026-05-04 18:49 | 47.26943 | 11.21037 | 5633 ft | 238 kts | 293° |
| 2026-05-04 18:50 | 47.27601 | 11.18813 | 6520 ft | 236 kts | 292° |
| 2026-05-04 18:50 | 47.28251 | 11.16588 | 7306 ft | 237 kts | 292° |
| 2026-05-04 18:50 | 47.28902 | 11.14347 | 8077 ft | 239 kts | 292° |
| 2026-05-04 18:50 | 47.29569 | 11.12045 | 8626 ft | 254 kts | 292° |
| 2026-05-04 18:51 | 47.30260 | 11.09507 | 8978 ft | 277 kts | 284° |
| 2026-05-04 18:51 | 47.30496 | 11.06649 | 9584 ft | 285 kts | 266° |
| 2026-05-04 18:51 | 47.30381 | 11.03711 | 10315 ft | 292 kts | 265° |
| 2026-05-04 18:51 | 47.30259 | 11.00595 | 10603 ft | 316 kts | 265° |
| 2026-05-04 18:52 | 47.30130 | 10.97279 | 10809 ft | 340 kts | 265° |
| 2026-05-04 18:52 | 47.29996 | 10.93720 | 11196 ft | 354 kts | 265° |
| 2026-05-04 18:52 | 47.29920 | 10.90069 | 11869 ft | 359 kts | 272° |
| 2026-05-04 18:52 | 47.30327 | 10.86418 | 12606 ft | 364 kts | 284° |
| 2026-05-04 18:53 | 47.31297 | 10.82949 | 13358 ft | 369 kts | 297° |
| 2026-05-04 18:53 | 47.32803 | 10.79836 | 13959 ft | 379 kts | 310° |
| 2026-05-04 18:53 | 47.34747 | 10.77168 | 14581 ft | 384 kts | 316° |
| 2026-05-04 18:53 | 47.36751 | 10.74537 | 15232 ft | 387 kts | 315° |
| 2026-05-04 18:54 | 47.38777 | 10.71901 | 15858 ft | 391 kts | 318° |
| 2026-05-04 18:54 | 47.40992 | 10.69567 | 16465 ft | 395 kts | 323° |
| 2026-05-04 18:54 | 47.43270 | 10.67257 | 17063 ft | 398 kts | 322° |
| 2026-05-04 18:54 | 47.45259 | 10.65232 | 17556 ft | 401 kts | 322° |
| 2026-05-04 18:55 | 47.47448 | 10.63107 | 18102 ft | 406 kts | 328° |
| 2026-05-04 18:55 | 47.53048 | 10.61509 | 19079 ft | 425 kts | 5° |
| 2026-05-04 18:55 | 47.55895 | 10.62728 | 19533 ft | 432 kts | 25° |
| 2026-05-04 18:56 | 47.58372 | 10.65263 | 20000 ft | 436 kts | 44° |
| 2026-05-04 18:56 | 47.60215 | 10.68830 | 20469 ft | 438 kts | 59° |
| 2026-05-04 18:56 | 47.61783 | 10.72707 | 20951 ft | 440 kts | 60° |
| 2026-05-04 18:56 | 47.63348 | 10.76625 | 21422 ft | 442 kts | 60° |
| 2026-05-04 18:57 | 47.64913 | 10.80572 | 21897 ft | 445 kts | 60° |
| 2026-05-04 18:57 | 47.66489 | 10.84540 | 22355 ft | 447 kts | 59° |
| 2026-05-04 18:57 | 47.68281 | 10.88326 | 22797 ft | 450 kts | 50° |
| 2026-05-04 18:57 | 47.70460 | 10.91665 | 23242 ft | 452 kts | 40° |
| 2026-05-04 18:58 | 47.72919 | 10.94601 | 23642 ft | 454 kts | 38° |
| 2026-05-04 18:58 | 47.75403 | 10.97518 | 24003 ft | 456 kts | 38° |
| 2026-05-04 18:58 | 47.77889 | 11.00455 | 24360 ft | 458 kts | 38° |
| 2026-05-04 18:58 | 47.80306 | 11.03331 | 24724 ft | 459 kts | 38° |
| 2026-05-04 18:59 | 47.82798 | 11.06313 | 25134 ft | 460 kts | 38° |
| 2026-05-04 18:59 | 47.85296 | 11.09310 | 25499 ft | 462 kts | 38° |
| 2026-05-04 18:59 | 47.87806 | 11.12320 | 25839 ft | 464 kts | 38° |
| 2026-05-04 18:59 | 47.90326 | 11.15331 | 26178 ft | 466 kts | 38° |
| 2026-05-04 19:00 | 47.92862 | 11.18350 | 26486 ft | 468 kts | 38° |
| 2026-05-04 19:00 | 47.95416 | 11.21384 | 26801 ft | 470 kts | 38° |
| 2026-05-04 19:00 | 47.97980 | 11.24433 | 27089 ft | 472 kts | 38° |
| 2026-05-04 19:00 | 48.00561 | 11.27473 | 27353 ft | 474 kts | 35° |
| 2026-05-04 19:01 | 48.03430 | 11.29864 | 27651 ft | 473 kts | 20° |
| 2026-05-04 19:01 | 48.06583 | 11.31081 | 27933 ft | 472 kts | 5° |
| 2026-05-04 19:01 | 48.09874 | 11.31094 | 28220 ft | 471 kts | 354° |
| 2026-05-04 19:01 | 48.13150 | 11.30738 | 28552 ft | 471 kts | 354° |
| 2026-05-04 19:02 | 48.16411 | 11.30373 | 28881 ft | 470 kts | 354° |
| 2026-05-04 19:02 | 48.19679 | 11.30009 | 28949 ft | 469 kts | 354° |
| 2026-05-04 19:02 | 48.25943 | 11.29326 | 28947 ft | 469 kts | 354° |
| 2026-05-04 19:03 | 48.32403 | 11.28630 | 28947 ft | 468 kts | 354° |
| 2026-05-04 19:03 | 48.38909 | 11.27919 | 28945 ft | 468 kts | 354° |
| 2026-05-04 19:04 | 48.42168 | 11.27566 | 28745 ft | 469 kts | 354° |
| 2026-05-04 19:04 | 48.45423 | 11.27217 | 28317 ft | 470 kts | 354° |
| 2026-05-04 19:04 | 48.48695 | 11.26866 | 27889 ft | 472 kts | 354° |
| 2026-05-04 19:04 | 48.51977 | 11.26513 | 27467 ft | 474 kts | 354° |
| 2026-05-04 19:05 | 48.55275 | 11.26153 | 27058 ft | 475 kts | 354° |
| 2026-05-04 19:05 | 48.58583 | 11.25789 | 26646 ft | 477 kts | 354° |
| 2026-05-04 19:05 | 48.61896 | 11.25420 | 26240 ft | 478 kts | 354° |
| 2026-05-04 19:05 | 48.65220 | 11.25047 | 25846 ft | 479 kts | 353° |
| 2026-05-04 19:06 | 48.68543 | 11.24605 | 25454 ft | 480 kts | 352° |
| 2026-05-04 19:06 | 48.71847 | 11.24092 | 25069 ft | 478 kts | 352° |
| 2026-05-04 19:06 | 48.75159 | 11.23531 | 24686 ft | 476 kts | 352° |
| 2026-05-04 19:06 | 48.78455 | 11.22958 | 24308 ft | 473 kts | 351° |
| 2026-05-04 19:07 | 48.81688 | 11.22398 | 23942 ft | 471 kts | 352° |
| 2026-05-04 19:07 | 48.84946 | 11.21941 | 23573 ft | 470 kts | 356° |
| 2026-05-04 19:07 | 48.88217 | 11.21935 | 23111 ft | 469 kts | 359° |
| 2026-05-04 19:07 | 48.91466 | 11.21964 | 22605 ft | 465 kts | 359° |
| 2026-05-04 19:08 | 48.94690 | 11.21969 | 22071 ft | 461 kts | 356° |
| 2026-05-04 19:08 | 48.97818 | 11.21175 | 21552 ft | 451 kts | 339° |
| 2026-05-04 19:08 | 49.00606 | 11.19117 | 21048 ft | 443 kts | 326° |
| 2026-05-04 19:08 | 49.03187 | 11.16595 | 20546 ft | 439 kts | 324° |
| 2026-05-04 19:09 | 49.05737 | 11.14059 | 20054 ft | 436 kts | 324° |
| 2026-05-04 19:09 | 49.08233 | 11.11568 | 19583 ft | 433 kts | 324° |
| 2026-05-04 19:09 | 49.10739 | 11.09060 | 19115 ft | 429 kts | 324° |
| 2026-05-04 19:09 | 49.13234 | 11.06566 | 18643 ft | 427 kts | 324° |
| 2026-05-04 19:10 | 49.15695 | 11.04103 | 18173 ft | 424 kts | 324° |
| 2026-05-04 19:10 | 49.18093 | 11.01473 | 17640 ft | 418 kts | 315° |
| 2026-05-04 19:10 | 49.19885 | 10.98046 | 17119 ft | 410 kts | 296° |
| 2026-05-04 19:10 | 49.20918 | 10.94037 | 16603 ft | 404 kts | 285° |
| 2026-05-04 19:11 | 49.21727 | 10.89934 | 16095 ft | 402 kts | 284° |
| 2026-05-04 19:11 | 49.22428 | 10.86337 | 15671 ft | 400 kts | 284° |
| 2026-05-04 19:11 | 49.23223 | 10.82271 | 15173 ft | 398 kts | 285° |
| 2026-05-04 19:11 | 49.24376 | 10.78425 | 14684 ft | 400 kts | 301° |
| 2026-05-04 19:12 | 49.26213 | 10.75252 | 14205 ft | 401 kts | 318° |
| 2026-05-04 19:12 | 49.30874 | 10.70578 | 13208 ft | 401 kts | 333° |
| 2026-05-04 19:12 | 49.33510 | 10.69193 | 12676 ft | 401 kts | 347° |
| 2026-05-04 19:13 | 49.36283 | 10.68937 | 12167 ft | 401 kts | 4° |
| 2026-05-04 19:13 | 49.38974 | 10.69913 | 11661 ft | 399 kts | 22° |
| 2026-05-04 19:13 | 49.41352 | 10.72095 | 11164 ft | 397 kts | 40° |
| 2026-05-04 19:13 | 49.43172 | 10.75250 | 10660 ft | 392 kts | 59° |
| 2026-05-04 19:14 | 49.44294 | 10.79015 | 10169 ft | 386 kts | 76° |
| 2026-05-04 19:14 | 49.44659 | 10.83017 | 9656 ft | 374 kts | 94° |
| 2026-05-04 19:14 | 49.44352 | 10.86581 | 9180 ft | 363 kts | 108° |
| 2026-05-04 19:14 | 49.43656 | 10.90257 | 8807 ft | 353 kts | 109° |
| 2026-05-04 19:15 | 49.42978 | 10.93818 | 8448 ft | 343 kts | 109° |
| 2026-05-04 19:15 | 49.42318 | 10.97303 | 8089 ft | 335 kts | 108° |
| 2026-05-04 19:15 | 49.41677 | 11.00692 | 7734 ft | 327 kts | 108° |
| 2026-05-04 19:15 | 49.41046 | 11.04016 | 7394 ft | 321 kts | 108° |
| 2026-05-04 19:16 | 49.40426 | 11.07270 | 7046 ft | 314 kts | 108° |
| 2026-05-04 19:16 | 49.39819 | 11.10457 | 6703 ft | 308 kts | 108° |
| 2026-05-04 19:16 | 49.39243 | 11.13608 | 6372 ft | 303 kts | 104° |
| 2026-05-04 19:16 | 49.38879 | 11.16763 | 6027 ft | 298 kts | 99° |
| 2026-05-04 19:17 | 49.38573 | 11.19860 | 5759 ft | 290 kts | 99° |
| 2026-05-04 19:17 | 49.38271 | 11.22876 | 5496 ft | 281 kts | 99° |
| 2026-05-04 19:17 | 49.37980 | 11.25771 | 5434 ft | 270 kts | 99° |
| 2026-05-04 19:17 | 49.37695 | 11.28612 | 5440 ft | 269 kts | 99° |
| 2026-05-04 19:18 | 49.37412 | 11.31421 | 5444 ft | 269 kts | 99° |
| 2026-05-04 19:18 | 49.37124 | 11.34254 | 5443 ft | 268 kts | 99° |
| 2026-05-04 19:18 | 49.36837 | 11.37083 | 5443 ft | 268 kts | 99° |
| 2026-05-04 19:18 | 49.36550 | 11.39911 | 5443 ft | 268 kts | 99° |
| 2026-05-04 19:19 | 49.36262 | 11.42749 | 5440 ft | 269 kts | 99° |
| 2026-05-04 19:19 | 49.35979 | 11.45581 | 5440 ft | 269 kts | 97° |
| 2026-05-04 19:19 | 49.36161 | 11.48409 | 5440 ft | 270 kts | 71° |
| 2026-05-04 19:19 | 49.37163 | 11.50840 | 5091 ft | 271 kts | 43° |
| 2026-05-04 19:20 | 49.38773 | 11.52291 | 4715 ft | 269 kts | 21° |
| 2026-05-04 19:20 | 49.40596 | 11.52751 | 4330 ft | 267 kts | 355° |
| 2026-05-04 19:20 | 49.42383 | 11.52059 | 4030 ft | 262 kts | 337° |
| 2026-05-04 19:20 | 49.43893 | 11.50651 | 4002 ft | 247 kts | 321° |
| 2026-05-04 19:21 | 49.45030 | 11.48797 | 4004 ft | 231 kts | 306° |
| 2026-05-04 19:21 | 49.45784 | 11.46709 | 4004 ft | 218 kts | 292° |
| 2026-05-04 19:21 | 49.46184 | 11.44539 | 4004 ft | 211 kts | 279° |
| 2026-05-04 19:21 | 49.46407 | 11.42317 | 4007 ft | 209 kts | 279° |
| 2026-05-04 19:22 | 49.46629 | 11.40147 | 4026 ft | 201 kts | 279° |
| 2026-05-04 19:22 | 49.46843 | 11.38044 | 4020 ft | 198 kts | 279° |
| 2026-05-04 19:22 | 49.47055 | 11.35955 | 4010 ft | 197 kts | 279° |
| 2026-05-04 19:22 | 49.47264 | 11.33888 | 3997 ft | 193 kts | 279° |
| 2026-05-04 19:23 | 49.47467 | 11.31877 | 3847 ft | 188 kts | 280° |
| 2026-05-04 19:23 | 49.47665 | 11.29914 | 3628 ft | 184 kts | 280° |
| 2026-05-04 19:23 | 49.47859 | 11.27987 | 3418 ft | 180 kts | 280° |
| 2026-05-04 19:23 | 49.48044 | 11.26137 | 3178 ft | 170 kts | 281° |
| 2026-05-04 19:24 | 49.48219 | 11.24395 | 2980 ft | 161 kts | 281° |
| 2026-05-04 19:24 | 49.48385 | 11.22740 | 2757 ft | 152 kts | 281° |
| 2026-05-04 19:24 | 49.48542 | 11.21170 | 2558 ft | 146 kts | 282° |
| 2026-05-04 19:24 | 49.48693 | 11.19652 | 2368 ft | 143 kts | 282° |
| 2026-05-04 19:25 | 49.48843 | 11.18155 | 2184 ft | 141 kts | 282° |
| 2026-05-04 19:25 | 49.48991 | 11.16673 | 1998 ft | 140 kts | 282° |
| 2026-05-04 19:25 | 49.49137 | 11.15207 | 1815 ft | 138 kts | 282° |
| 2026-05-04 19:25 | 49.49282 | 11.13746 | 1629 ft | 138 kts | 281° |
| 2026-05-04 19:26 | 49.49426 | 11.12288 | 1450 ft | 139 kts | 279° |
| 2026-05-04 19:26 | 49.49568 | 11.10853 | 1268 ft | 137 kts | 281° |
| 2026-05-04 19:26 | 49.49708 | 11.09404 | 1080 ft | 136 kts | 281° |
| 2026-05-04 19:26 | 49.49841 | 11.08097 | 1031 ft | 93 kts | 278° |
| 2026-05-04 19:27 | 49.49907 | 11.07435 | 1022 ft | 51 kts | 278° |
| 2026-05-04 19:27 | 49.49939 | 11.07100 | 1022 ft | 17 kts | 276° |
| 2026-05-04 19:27 | 49.49855 | 11.07025 | 1021 ft | 18 kts | 159° |
| 2026-05-04 19:27 | 49.49804 | 11.07056 | 1021 ft | 5 kts | 158° |
| 2026-05-04 19:28 | 49.49788 | 11.07066 | 1021 ft | 0 kts | 158° |
| 2026-05-04 19:28 | 49.49784 | 11.07069 | 1021 ft | 4 kts | 158° |
| 2026-05-04 19:28 | 49.49743 | 11.07136 | 1022 ft | 11 kts | 106° |
| 2026-05-04 19:29 | 49.49730 | 11.07259 | 1022 ft | 12 kts | 98° |
| 2026-05-04 19:29 | 49.49717 | 11.07395 | 1023 ft | 14 kts | 98° |
| 2026-05-04 19:29 | 49.49703 | 11.07540 | 1020 ft | 14 kts | 98° |
| 2026-05-04 19:29 | 49.49688 | 11.07692 | 1022 ft | 13 kts | 98° |
| 2026-05-04 19:30 | 49.49652 | 11.07767 | 1024 ft | 6 kts | 174° |
| 2026-05-04 19:30 | 49.49606 | 11.07764 | 1027 ft | 8 kts | 177° |
| 2026-05-04 19:30 | 49.49580 | 11.07818 | 1027 ft | 6 kts | 96° |
| 2026-05-04 19:30 | 49.49560 | 11.07860 | 1026 ft | 6 kts | 163° |
| 2026-05-04 19:31 | 49.49517 | 11.07853 | 1025 ft | 4 kts | 188° |
| 2026-05-04 19:31 | 49.49513 | 11.07852 | 1026 ft | 0 kts | 188° |